Time;durP1;ratioP1;P1;durP2;ratioP2;P2;SDS_P1;SDS_P2;PMS_P1;PMS_P2;Temp;Humidity;BMP_temperature;BMP_pressure;BME280_temperature;BME280_humidity;BME280_pressure;Samples;Min_cycle;Max_cycle;Signal;HPM_P1;HPM_P2
2022/01/19 00:00:03;;;;;;;6.85;4.90;;;;;;;;;;5071833;28;20612;-77
2022/01/19 00:02:30;;;;;;;8.23;5.78;;;;;;;;;;5071261;28;20709;-77
2022/01/19 00:04:57;;;;;;;8.77;5.80;;;;;;;;;;5071984;28;20576;-77
2022/01/19 00:07:24;;;;;;;9.00;5.30;;;;;;;;;;5072333;28;20190;-77
2022/01/19 00:09:53;;;;;;;5.18;4.68;;;;;;;;;;5070401;28;20228;-78
2022/01/19 00:12:20;;;;;;;6.45;5.07;;;;;;;;;;5068854;28;20193;-76
2022/01/19 00:14:47;;;;;;;7.53;5.45;;;;;;;;;;5066663;28;20571;-77
2022/01/19 00:17:14;;;;;;;9.57;6.55;;;;;;;;;;5071996;28;20218;-77
2022/01/19 00:19:41;;;;;;;10.40;5.50;;;;;;;;;;5066868;28;20210;-77
2022/01/19 00:22:09;;;;;;;8.55;5.90;;;;;;;;;;5072191;28;20190;-77
2022/01/19 00:24:36;;;;;;;9.60;6.60;;;;;;;;;;5071324;28;20764;-77
2022/01/19 00:27:05;;;;;;;11.02;7.13;;;;;;;;;;5069947;28;20524;-77
2022/01/19 00:29:32;;;;;;;11.20;7.30;;;;;;;;;;5067309;28;20198;-77
2022/01/19 00:31:59;;;;;;;9.73;6.57;;;;;;;;;;5069674;28;20228;-77
2022/01/19 00:34:28;;;;;;;7.45;6.20;;;;;;;;;;5068991;28;20301;-78
2022/01/19 00:36:55;;;;;;;12.88;6.53;;;;;;;;;;5072164;28;20565;-78
2022/01/19 00:39:23;;;;;;;8.30;6.05;;;;;;;;;;5072562;28;20201;-77
2022/01/19 00:41:50;;;;;;;6.65;5.25;;;;;;;;;;5065536;28;20289;-77
2022/01/19 00:44:20;;;;;;;5.65;4.80;;;;;;;;;;5068221;28;20217;-77
2022/01/19 00:46:47;;;;;;;7.45;5.65;;;;;;;;;;5067892;28;20376;-77
2022/01/19 00:49:14;;;;;;;10.00;5.60;;;;;;;;;;5071453;28;20197;-78
2022/01/19 00:51:42;;;;;;;6.95;5.20;;;;;;;;;;5070700;28;20547;-77
2022/01/19 00:54:09;;;;;;;9.18;4.97;;;;;;;;;;5072105;28;20222;-78
2022/01/19 00:56:36;;;;;;;7.40;5.22;;;;;;;;;;5070430;28;20190;-77
2022/01/19 00:59:03;;;;;;;5.97;4.70;;;;;;;;;;5073425;28;20204;-77
2022/01/19 01:01:32;;;;;;;6.18;4.50;;;;;;;;;;5074042;28;20190;-77
2022/01/19 01:03:59;;;;;;;6.35;4.55;;;;;;;;;;5072141;28;20229;-77
2022/01/19 01:06:26;;;;;;;5.70;4.53;;;;;;;;;;5066514;28;20193;-77
2022/01/19 01:08:53;;;;;;;6.85;4.65;;;;;;;;;;5068905;28;20197;-77
2022/01/19 01:11:28;;;;;;;5.13;4.32;;;;;;;;;;5068562;28;20193;-77
2022/01/19 01:16:40;;;;;;;3.85;3.45;;;;;;;;;;5071799;28;20543;-77
2022/01/19 01:19:08;;;;;;;11.18;4.78;;;;;;;;;;5069734;28;20198;-77
2022/01/19 01:21:35;;;;;;;6.03;4.28;;;;;;;;;;5071136;28;20212;-78
2022/01/19 01:24:03;;;;;;;5.43;3.90;;;;;;;;;;5065025;28;20233;-77
2022/01/19 01:26:30;;;;;;;5.25;3.72;;;;;;;;;;5068930;28;20195;-77
2022/01/19 01:28:57;;;;;;;3.88;3.47;;;;;;;;;;5071505;28;20531;-78
2022/01/19 01:31:24;;;;;;;4.57;4.07;;;;;;;;;;5069087;28;20202;-77
2022/01/19 01:33:53;;;;;;;5.22;3.35;;;;;;;;;;5069856;28;20545;-78
2022/01/19 01:36:20;;;;;;;5.60;4.63;;;;;;;;;;5068229;28;20550;-77
2022/01/19 01:38:47;;;;;;;5.45;4.35;;;;;;;;;;5071668;28;20619;-77
2022/01/19 01:41:15;;;;;;;4.90;4.40;;;;;;;;;;5070541;28;20194;-77
2022/01/19 01:43:42;;;;;;;5.22;4.72;;;;;;;;;;5069596;28;20321;-77
2022/01/19 01:46:17;;;;;;;5.57;4.60;;;;;;;;;;5065289;28;21383;-77
2022/01/19 01:48:46;;;;;;;6.25;5.65;;;;;;;;;;5067816;28;20266;-77
2022/01/19 01:53:56;;;;;;;8.48;5.22;;;;;;;;;;5068023;28;20225;-77
2022/01/19 01:56:23;;;;;;;5.72;5.18;;;;;;;;;;5070582;28;20212;-78
2022/01/19 01:58:51;;;;;;;7.72;5.55;;;;;;;;;;5069575;28;20232;-77
2022/01/19 02:01:18;;;;;;;6.72;5.68;;;;;;;;;;5066999;28;20190;-77
2022/01/19 02:03:47;;;;;;;6.60;6.00;;;;;;;;;;5066565;28;20214;-77
2022/01/19 02:06:30;;;;;;;7.00;6.00;;;;;;;;;;5068010;28;20194;-77
2022/01/19 02:09:03;;;;;;;7.75;6.95;;;;;;;;;;5050850;28;20651;-76
2022/01/19 02:22:31;;;;;;;7.68;6.30;;;;;;;;;;5069506;28;20198;-77
2022/01/19 02:24:58;;;;;;;6.40;5.80;;;;;;;;;;5065440;28;20571;-77
2022/01/19 02:40:52;;;;;;;9.60;7.40;;;;;;;;;;5069553;28;20229;-77
2022/01/19 02:43:24;;;;;;;9.40;6.88;;;;;;;;;;5071341;28;20300;-77
2022/01/19 02:51:15;;;;;;;8.75;7.10;;;;;;;;;;5075347;28;20213;-77
2022/01/19 02:53:42;;;;;;;9.70;7.57;;;;;;;;;;5073428;28;20567;-77
2022/01/19 02:56:13;;;;;;;8.10;7.30;;;;;;;;;;5071889;28;20201;-77
2022/01/19 02:58:46;;;;;;;8.63;7.40;;;;;;;;;;5068441;28;20271;-77
2022/01/19 03:11:43;;;;;;;7.83;7.03;;;;;;;;;;5073646;28;20198;-77
2022/01/19 03:14:12;;;;;;;8.68;6.63;;;;;;;;;;5069655;28;20463;-76
2022/01/19 03:16:39;;;;;;;7.63;6.70;;;;;;;;;;5069157;28;20894;-77
2022/01/19 03:19:08;;;;;;;7.63;6.35;;;;;;;;;;5072384;28;20190;-77
2022/01/19 03:21:36;;;;;;;7.25;6.55;;;;;;;;;;5071857;28;20228;-77
2022/01/19 03:24:04;;;;;;;6.78;5.97;;;;;;;;;;5072309;28;20305;-77
2022/01/19 03:26:31;;;;;;;6.25;5.65;;;;;;;;;;5073899;28;20666;-77
2022/01/19 03:28:59;;;;;;;7.05;5.95;;;;;;;;;;5073802;28;20395;-77
2022/01/19 03:31:26;;;;;;;6.85;5.75;;;;;;;;;;5074394;28;20555;-77
2022/01/19 03:33:53;;;;;;;9.30;5.88;;;;;;;;;;5071635;28;20661;-77
2022/01/19 03:36:20;;;;;;;5.90;5.20;;;;;;;;;;5068889;28;20198;-78
2022/01/19 03:38:49;;;;;;;6.38;5.47;;;;;;;;;;5068347;28;20282;-77
2022/01/19 03:41:16;;;;;;;6.93;4.97;;;;;;;;;;5072567;28;20198;-78
2022/01/19 03:43:43;;;;;;;5.10;4.60;;;;;;;;;;5071743;28;20229;-78
2022/01/19 03:46:14;;;;;;;6.40;5.32;;;;;;;;;;5072407;28;20197;-77
2022/01/19 03:48:50;;;;;;;6.88;5.38;;;;;;;;;;5072040;28;20280;-77
2022/01/19 03:51:17;;;;;;;5.50;4.88;;;;;;;;;;5074358;28;20557;-77
2022/01/19 03:53:44;;;;;;;5.07;4.65;;;;;;;;;;5067544;28;20186;-76
2022/01/19 03:56:13;;;;;;;7.05;4.45;;;;;;;;;;5069104;28;20205;-76
2022/01/19 03:58:40;;;;;;;5.13;4.55;;;;;;;;;;5072746;28;20198;-77
2022/01/19 04:01:09;;;;;;;5.55;4.75;;;;;;;;;;5072537;28;20194;-77
2022/01/19 04:03:59;;;;;;;4.68;4.28;;;;;;;;;;5069145;28;20267;-77
2022/01/19 04:06:29;;;;;;;4.30;4.00;;;;;;;;;;5057584;28;20190;-77
2022/01/19 04:08:56;;;;;;;5.13;4.30;;;;;;;;;;5072095;28;20281;-77
2022/01/19 04:11:26;;;;;;;4.90;4.40;;;;;;;;;;5069552;28;20198;-77
2022/01/19 04:16:34;;;;;;;4.07;3.78;;;;;;;;;;5066033;28;20742;-77
2022/01/19 04:19:10;;;;;;;6.47;4.40;;;;;;;;;;5068124;28;20201;-77
2022/01/19 04:21:38;;;;;;;4.60;4.07;;;;;;;;;;5071081;28;20282;-77
2022/01/19 04:24:05;;;;;;;6.78;4.03;;;;;;;;;;5072576;28;20224;-77
2022/01/19 04:26:34;;;;;;;7.55;5.10;;;;;;;;;;5068287;28;20198;-77
2022/01/19 04:29:01;;;;;;;5.65;4.65;;;;;;;;;;5069662;28;20186;-77
2022/01/19 04:31:28;;;;;;;4.90;4.40;;;;;;;;;;5058233;28;20194;-77
2022/01/19 04:34:00;;;;;;;4.63;4.20;;;;;;;;;;5067375;28;20212;-77
2022/01/19 04:36:32;;;;;;;5.13;4.63;;;;;;;;;;5064518;28;20202;-76
2022/01/19 04:39:22;;;;;;;4.43;4.03;;;;;;;;;;5076002;28;20204;-77
2022/01/19 04:44:41;;;;;;;5.85;4.10;;;;;;;;;;5071894;28;20229;-77
2022/01/19 05:06:02;;;;;;;4.03;3.70;;;;;;;;;;5069055;28;20216;-77
2022/01/19 05:08:47;;;;;;;3.80;3.50;;;;;;;;;;5070738;28;20194;-77
2022/01/19 05:13:57;;;;;;;3.90;3.47;;;;;;;;;;5068765;28;20214;-77
2022/01/19 05:16:24;;;;;;;3.55;3.25;;;;;;;;;;5064660;28;20194;-76
2022/01/19 05:18:52;;;;;;;3.72;3.30;;;;;;;;;;5070391;28;20418;-77
2022/01/19 05:21:20;;;;;;;4.30;3.90;;;;;;;;;;5068315;28;20202;-76
2022/01/19 05:23:47;;;;;;;3.10;2.88;;;;;;;;;;5063527;28;20229;-77
2022/01/19 05:26:14;;;;;;;3.10;2.80;;;;;;;;;;5065030;28;20801;-77
2022/01/19 05:28:42;;;;;;;3.63;3.08;;;;;;;;;;5070037;28;20193;-77
2022/01/19 05:31:10;;;;;;;7.55;3.35;;;;;;;;;;5065433;28;20645;-76
2022/01/19 05:33:37;;;;;;;3.15;2.95;;;;;;;;;;5065130;28;20194;-77
2022/01/19 05:36:05;;;;;;;3.05;2.60;;;;;;;;;;5069127;28;20202;-76
2022/01/19 05:38:32;;;;;;;3.28;2.80;;;;;;;;;;5069715;28;20198;-77
2022/01/19 05:40:59;;;;;;;3.63;2.90;;;;;;;;;;5071056;28;20285;-77
2022/01/19 05:43:26;;;;;;;5.40;2.83;;;;;;;;;;5068097;28;20255;-76
2022/01/19 05:45:54;;;;;;;2.92;2.72;;;;;;;;;;5070060;28;20218;-76
2022/01/19 05:48:23;;;;;;;3.40;3.00;;;;;;;;;;5072500;28;20654;-77
2022/01/19 05:50:51;;;;;;;2.95;2.75;;;;;;;;;;5071040;28;20190;-77
2022/01/19 05:53:18;;;;;;;3.50;2.92;;;;;;;;;;5067779;28;20635;-76
2022/01/19 05:55:46;;;;;;;2.97;2.78;;;;;;;;;;5065162;28;20329;-76
2022/01/19 05:58:13;;;;;;;3.40;3.10;;;;;;;;;;5069742;28;20694;-76
2022/01/19 06:00:40;;;;;;;3.20;2.90;;;;;;;;;;5069302;28;20194;-77
2022/01/19 06:03:07;;;;;;;3.38;3.08;;;;;;;;;;5071005;28;20560;-77
2022/01/19 06:05:38;;;;;;;3.72;3.30;;;;;;;;;;5069157;28;20241;-77
2022/01/19 06:08:17;;;;;;;3.67;3.28;;;;;;;;;;5069350;28;20198;-76
2022/01/19 06:10:45;;;;;;;3.45;2.92;;;;;;;;;;5072270;28;20196;-76
2022/01/19 06:13:12;;;;;;;4.00;3.60;;;;;;;;;;5072899;28;20202;-77
2022/01/19 06:15:39;;;;;;;3.38;2.97;;;;;;;;;;5067644;28;20221;-76
2022/01/19 06:18:07;;;;;;;3.70;3.40;;;;;;;;;;5064829;28;20237;-76
2022/01/19 06:20:37;;;;;;;3.58;3.28;;;;;;;;;;5067461;28;20251;-77
2022/01/19 06:23:04;;;;;;;3.65;3.35;;;;;;;;;;5070175;28;20201;-77
2022/01/19 06:25:32;;;;;;;4.82;4.32;;;;;;;;;;5068451;28;20222;-76
2022/01/19 06:27:59;;;;;;;4.40;4.05;;;;;;;;;;5069454;28;20206;-77
2022/01/19 06:30:27;;;;;;;3.78;3.38;;;;;;;;;;5069657;28;20202;-76
2022/01/19 06:32:54;;;;;;;4.22;3.83;;;;;;;;;;5068194;28;20618;-76
2022/01/19 06:35:21;;;;;;;6.70;4.78;;;;;;;;;;5064100;28;20244;-77
2022/01/19 06:37:50;;;;;;;4.97;3.85;;;;;;;;;;5067449;28;20282;-76
2022/01/19 06:40:18;;;;;;;4.80;3.88;;;;;;;;;;5068580;28;20190;-77
2022/01/19 06:42:46;;;;;;;4.72;4.32;;;;;;;;;;5066560;28;20600;-77
2022/01/19 06:45:14;;;;;;;5.15;4.65;;;;;;;;;;5067480;28;20328;-77
2022/01/19 06:47:41;;;;;;;5.78;4.80;;;;;;;;;;5064403;28;20224;-76
2022/01/19 06:50:10;;;;;;;5.25;4.75;;;;;;;;;;5066038;28;20276;-76
2022/01/19 06:52:37;;;;;;;6.65;5.13;;;;;;;;;;5067022;28;20190;-76
2022/01/19 06:55:06;;;;;;;5.07;4.57;;;;;;;;;;5068283;28;20214;-77
2022/01/19 06:57:33;;;;;;;5.47;4.10;;;;;;;;;;5068909;28;20547;-76
2022/01/19 07:00:00;;;;;;;5.70;3.90;;;;;;;;;;5069439;28;20601;-76
2022/01/19 07:02:28;;;;;;;5.00;4.50;;;;;;;;;;5066897;28;20198;-77
2022/01/19 07:04:55;;;;;;;5.30;4.80;;;;;;;;;;5069179;28;20257;-76
2022/01/19 07:07:23;;;;;;;5.20;4.70;;;;;;;;;;5065278;28;20194;-76
2022/01/19 07:09:50;;;;;;;5.18;4.70;;;;;;;;;;5064438;28;20190;-75
2022/01/19 07:12:19;;;;;;;4.88;4.30;;;;;;;;;;5067919;28;20197;-77
2022/01/19 07:14:46;;;;;;;7.63;4.80;;;;;;;;;;5067509;28;20221;-78
2022/01/19 07:17:13;;;;;;;5.30;4.80;;;;;;;;;;5062663;28;20579;-82
2022/01/19 07:19:40;;;;;;;4.72;4.22;;;;;;;;;;5069336;28;20194;-76
2022/01/19 07:22:07;;;;;;;5.20;4.70;;;;;;;;;;5072660;28;20202;-78
2022/01/19 07:24:35;;;;;;;7.18;5.43;;;;;;;;;;5064538;28;20229;-81
2022/01/19 07:27:02;;;;;;;6.57;5.95;;;;;;;;;;5069927;28;20191;-78
2022/01/19 07:29:30;;;;;;;6.60;6.00;;;;;;;;;;5073444;28;20182;-76
2022/01/19 07:31:58;;;;;;;5.82;5.28;;;;;;;;;;5073339;28;20212;-76
2022/01/19 07:34:26;;;;;;;6.45;4.97;;;;;;;;;;5071673;28;20272;-76
2022/01/19 07:36:54;;;;;;;5.30;4.80;;;;;;;;;;5067889;28;20205;-78
2022/01/19 07:39:21;;;;;;;5.45;4.93;;;;;;;;;;5073158;28;20189;-80
2022/01/19 07:41:48;;;;;;;5.20;4.70;;;;;;;;;;5074103;28;20198;-77
2022/01/19 07:44:16;;;;;;;6.20;5.30;;;;;;;;;;5076029;28;20214;-79
2022/01/19 07:46:44;;;;;;;8.52;6.82;;;;;;;;;;5065950;28;20554;-79
2022/01/19 07:49:11;;;;;;;5.30;4.80;;;;;;;;;;5068883;28;20697;-79
2022/01/19 07:51:38;;;;;;;5.38;4.80;;;;;;;;;;5068883;28;20551;-78
2022/01/19 07:54:06;;;;;;;5.85;5.15;;;;;;;;;;5073435;28;20222;-77
2022/01/19 07:56:33;;;;;;;5.78;5.13;;;;;;;;;;5072164;28;20186;-80
2022/01/19 07:59:03;;;;;;;5.75;4.38;;;;;;;;;;5072598;28;20194;-80
2022/01/19 08:01:31;;;;;;;5.82;5.00;;;;;;;;;;5074273;28;20536;-80
2022/01/19 08:04:00;;;;;;;5.07;4.57;;;;;;;;;;5076290;28;20218;-78
2022/01/19 08:06:27;;;;;;;5.53;4.97;;;;;;;;;;5074301;28;20229;-78
2022/01/19 08:08:55;;;;;;;6.28;5.03;;;;;;;;;;5069928;28;20193;-80
2022/01/19 08:11:23;;;;;;;6.00;5.13;;;;;;;;;;5069977;28;20186;-78
2022/01/19 08:13:50;;;;;;;5.50;5.00;;;;;;;;;;5072626;28;20260;-76
2022/01/19 08:16:17;;;;;;;6.18;5.47;;;;;;;;;;5069922;28;20196;-78
2022/01/19 08:18:45;;;;;;;6.18;5.50;;;;;;;;;;5072584;28;20248;-77
2022/01/19 08:21:13;;;;;;;6.70;5.65;;;;;;;;;;5073080;28;20198;-78
2022/01/19 08:23:41;;;;;;;5.70;5.10;;;;;;;;;;5070050;28;20204;-77
2022/01/19 08:26:08;;;;;;;6.35;5.65;;;;;;;;;;5067215;28;20261;-77
2022/01/19 08:28:35;;;;;;;6.05;5.38;;;;;;;;;;5064785;28;20683;-78
2022/01/19 08:31:03;;;;;;;9.50;5.55;;;;;;;;;;5072630;28;20759;-79
2022/01/19 08:33:30;;;;;;;8.73;5.90;;;;;;;;;;5071014;28;20477;-78
2022/01/19 08:35:57;;;;;;;12.00;7.20;;;;;;;;;;5073193;28;20197;-78
2022/01/19 08:38:25;;;;;;;8.18;6.80;;;;;;;;;;5070927;28;20233;-78
2022/01/19 08:40:53;;;;;;;6.50;5.80;;;;;;;;;;5069309;28;20650;-78
2022/01/19 08:43:20;;;;;;;9.68;5.97;;;;;;;;;;5064713;28;20225;-78
2022/01/19 08:45:49;;;;;;;12.63;6.45;;;;;;;;;;5070159;28;20226;-77
2022/01/19 08:48:18;;;;;;;9.80;8.18;;;;;;;;;;5069485;28;20190;-79
2022/01/19 08:50:45;;;;;;;12.27;9.65;;;;;;;;;;5071239;28;20285;-79
2022/01/19 08:53:13;;;;;;;9.18;7.38;;;;;;;;;;5070327;28;20610;-78
2022/01/19 08:55:42;;;;;;;11.40;7.10;;;;;;;;;;5072186;28;20714;-80
2022/01/19 08:58:10;;;;;;;7.85;6.13;;;;;;;;;;5068043;28;20197;-80
2022/01/19 09:00:38;;;;;;;8.45;6.00;;;;;;;;;;5068479;28;20201;-80
2022/01/19 09:03:05;;;;;;;6.38;5.78;;;;;;;;;;5070792;28;20202;-77
2022/01/19 09:05:32;;;;;;;6.20;5.60;;;;;;;;;;5070903;28;20222;-79
2022/01/19 09:08:00;;;;;;;6.30;5.75;;;;;;;;;;5070778;28;20213;-79
2022/01/19 09:10:27;;;;;;;6.55;5.95;;;;;;;;;;5072704;28;20200;-77
2022/01/19 09:13:01;;;;;;;13.10;6.53;;;;;;;;;;5072591;28;20201;-78
2022/01/19 09:15:28;;;;;;;9.43;6.45;;;;;;;;;;5064861;28;20222;-81
2022/01/19 09:17:56;;;;;;;7.60;6.43;;;;;;;;;;5066122;28;20687;-80
2022/01/19 09:20:23;;;;;;;9.70;7.22;;;;;;;;;;5070866;28;20206;-82
2022/01/19 09:22:50;;;;;;;13.10;6.65;;;;;;;;;;5069227;28;20658;-78
2022/01/19 09:25:17;;;;;;;12.50;7.50;;;;;;;;;;5066798;28;20214;-82
2022/01/19 09:27:45;;;;;;;7.70;6.35;;;;;;;;;;5071821;28;20194;-80
2022/01/19 09:30:15;;;;;;;8.55;7.68;;;;;;;;;;5071522;28;20200;-79
2022/01/19 09:32:44;;;;;;;9.85;7.95;;;;;;;;;;5070561;28;20192;-80
2022/01/19 09:35:11;;;;;;;13.25;9.75;;;;;;;;;;5071754;28;20214;-78
2022/01/19 09:37:40;;;;;;;8.70;7.13;;;;;;;;;;5064746;28;20201;-77
2022/01/19 09:40:08;;;;;;;9.43;7.82;;;;;;;;;;5065273;28;20210;-78
2022/01/19 09:42:35;;;;;;;10.50;8.13;;;;;;;;;;5070661;28;20198;-81
2022/01/19 09:45:06;;;;;;;10.85;8.10;;;;;;;;;;5071698;28;20325;-79
2022/01/19 09:47:37;;;;;;;8.48;6.97;;;;;;;;;;5067701;28;20583;-79
2022/01/19 09:50:05;;;;;;;9.43;8.02;;;;;;;;;;5070146;28;20267;-79
2022/01/19 09:52:33;;;;;;;11.07;8.57;;;;;;;;;;5070479;28;20229;-79
2022/01/19 09:55:00;;;;;;;9.57;7.68;;;;;;;;;;5073373;28;20297;-78
2022/01/19 09:57:27;;;;;;;8.63;7.10;;;;;;;;;;5073415;28;20551;-79
2022/01/19 09:59:54;;;;;;;10.32;8.80;;;;;;;;;;5065670;28;20198;-78
2022/01/19 10:02:22;;;;;;;9.35;8.35;;;;;;;;;;5065035;28;20198;-77
2022/01/19 10:04:51;;;;;;;9.27;7.85;;;;;;;;;;5067580;28;20218;-78
2022/01/19 10:07:20;;;;;;;10.32;9.07;;;;;;;;;;5069074;28;20205;-78
2022/01/19 10:09:48;;;;;;;10.85;8.85;;;;;;;;;;5070032;28;20198;-77
2022/01/19 10:17:45;;;;;;;9.73;8.68;;;;;;;;;;5065729;28;20216;-79
2022/01/19 10:20:22;;;;;;;9.50;8.30;;;;;;;;;;5067400;28;20194;-78
2022/01/19 10:22:50;;;;;;;11.40;8.95;;;;;;;;;;5067865;28;20288;-80
2022/01/19 10:25:18;;;;;;;10.68;8.75;;;;;;;;;;5068412;28;20381;-86
2022/01/19 10:27:46;;;;;;;11.32;8.55;;;;;;;;;;5060225;28;20191;-79
2022/01/19 10:30:16;;;;;;;12.60;9.23;;;;;;;;;;5061831;28;20198;-80
2022/01/19 10:32:47;;;;;;;13.55;9.57;;;;;;;;;;5065648;28;20205;-81
2022/01/19 10:35:15;;;;;;;10.00;9.00;;;;;;;;;;5066430;28;20209;-80
2022/01/19 10:37:43;;;;;;;16.30;10.82;;;;;;;;;;5065938;28;20198;-80
2022/01/19 10:40:14;;;;;;;20.10;13.07;;;;;;;;;;5068978;28;20209;-78
2022/01/19 10:42:42;;;;;;;14.82;12.15;;;;;;;;;;5069908;28;20194;-76
2022/01/19 10:45:12;;;;;;;15.05;10.30;;;;;;;;;;5154501;22;20232;-78
2022/01/19 10:47:49;;;;;;;13.68;10.30;;;;;;;;;;5009422;28;20204;-78
2022/01/19 10:50:21;;;;;;;11.70;9.48;;;;;;;;;;5016753;28;20200;-79
2022/01/19 10:52:50;;;;;;;9.60;8.10;;;;;;;;;;4994583;28;20191;-80
2022/01/19 10:55:26;;;;;;;9.70;8.70;;;;;;;;;;4992674;28;20212;-78
2022/01/19 10:57:54;;;;;;;10.63;9.40;;;;;;;;;;5013891;28;20184;-79
2022/01/19 11:00:24;;;;;;;12.40;8.90;;;;;;;;;;5013594;28;20196;-78
2022/01/19 11:02:51;;;;;;;10.50;8.45;;;;;;;;;;5014340;28;20231;-79
2022/01/19 11:05:19;;;;;;;10.75;8.20;;;;;;;;;;5012582;28;20215;-77
2022/01/19 11:07:46;;;;;;;11.40;10.10;;;;;;;;;;5020175;28;20199;-78
2022/01/19 11:10:18;;;;;;;10.80;9.63;;;;;;;;;;5022850;28;20271;-77
2022/01/19 11:12:47;;;;;;;13.30;10.20;;;;;;;;;;5033868;28;20199;-79
2022/01/19 11:15:15;;;;;;;11.50;8.68;;;;;;;;;;5008506;28;20223;-78
2022/01/19 11:17:43;;;;;;;10.82;9.35;;;;;;;;;;5014562;28;20196;-78
2022/01/19 11:20:12;;;;;;;10.77;8.85;;;;;;;;;;4993329;28;20199;-78
2022/01/19 11:22:54;;;;;;;12.73;8.35;;;;;;;;;;5012472;28;20204;-79
2022/01/19 11:25:27;;;;;;;11.25;9.65;;;;;;;;;;5000244;28;20680;-78
2022/01/19 11:27:55;;;;;;;12.85;9.63;;;;;;;;;;5022072;28;20199;-79
2022/01/19 11:30:23;;;;;;;11.50;8.50;;;;;;;;;;5031589;28;20195;-79
2022/01/19 11:33:05;;;;;;;18.60;10.60;;;;;;;;;;5020457;28;20740;-78
2022/01/19 11:35:34;;;;;;;11.48;9.27;;;;;;;;;;5012455;28;20226;-77
2022/01/19 11:38:01;;;;;;;11.88;9.82;;;;;;;;;;5012075;28;20533;-77
2022/01/19 11:40:40;;;;;;;9.45;8.30;;;;;;;;;;5017588;28;20196;-80
2022/01/19 11:43:19;;;;;;;12.23;9.55;;;;;;;;;;5019611;28;20259;-80
2022/01/19 11:45:46;;;;;;;15.35;9.50;;;;;;;;;;4991793;28;20241;-80
2022/01/19 11:48:13;;;;;;;11.32;8.98;;;;;;;;;;5011606;28;20551;-80
2022/01/19 11:50:41;;;;;;;11.10;9.65;;;;;;;;;;5011725;28;20665;-79
2022/01/19 11:53:10;;;;;;;11.95;9.13;;;;;;;;;;5025728;28;20206;-82
2022/01/19 11:55:40;;;;;;;12.60;9.20;;;;;;;;;;5013510;28;20227;-79
2022/01/19 11:58:16;;;;;;;12.43;8.40;;;;;;;;;;4995864;28;20196;-81
2022/01/19 12:00:45;;;;;;;12.05;9.25;;;;;;;;;;4994407;28;20200;-82
2022/01/19 12:03:21;;;;;;;12.77;10.05;;;;;;;;;;5015166;28;20196;-82
2022/01/19 12:05:50;;;;;;;10.82;9.73;;;;;;;;;;5014602;28;20559;-78
2022/01/19 12:08:23;;;;;;;10.25;9.25;;;;;;;;;;5006399;28;20200;-81
2022/01/19 12:10:56;;;;;;;12.20;9.23;;;;;;;;;;5013590;28;20207;-81
2022/01/19 12:13:30;;;;;;;12.80;9.70;;;;;;;;;;5012540;28;20199;-81
2022/01/19 12:16:00;;;;;;;15.40;9.70;;;;;;;;;;5012610;28;20275;-79
2022/01/19 12:18:42;;;;;;;13.57;9.40;;;;;;;;;;4995065;28;20193;-83
2022/01/19 12:21:11;;;;;;;14.90;9.57;;;;;;;;;;5005704;28;20200;-77
2022/01/19 12:23:39;;;;;;;13.75;9.95;;;;;;;;;;5011530;28;20523;-78
2022/01/19 12:26:09;;;;;;;12.52;9.55;;;;;;;;;;5011763;28;20228;-79
2022/01/19 12:28:40;;;;;;;13.07;9.00;;;;;;;;;;5012103;28;20294;-78
2022/01/19 12:31:22;;;;;;;11.25;9.40;;;;;;;;;;5011988;28;20270;-78
2022/01/19 12:34:04;;;;;;;14.50;10.15;;;;;;;;;;5012219;28;20211;-79
2022/01/19 12:36:47;;;;;;;12.68;8.82;;;;;;;;;;5010761;28;20192;-78
2022/01/19 12:39:29;;;;;;;10.25;8.15;;;;;;;;;;4995063;28;20224;-79
2022/01/19 12:41:59;;;;;;;13.10;9.98;;;;;;;;;;5008666;28;20204;-80
2022/01/19 12:44:41;;;;;;;13.00;9.85;;;;;;;;;;5000445;28;20236;-77
2022/01/19 12:47:23;;;;;;;14.13;10.88;;;;;;;;;;5003764;28;20688;-80
2022/01/19 12:49:51;;;;;;;11.20;9.85;;;;;;;;;;4982852;28;20192;-83
2022/01/19 12:52:22;;;;;;;14.10;10.10;;;;;;;;;;5012687;28;20200;-81
2022/01/19 12:54:50;;;;;;;11.80;9.98;;;;;;;;;;4994959;28;20216;-78
2022/01/19 12:57:18;;;;;;;11.88;9.52;;;;;;;;;;5009393;28;20200;-78
2022/01/19 12:59:46;;;;;;;11.88;10.13;;;;;;;;;;5013071;28;20195;-79
2022/01/19 13:02:16;;;;;;;11.32;9.50;;;;;;;;;;4997719;28;20211;-79
2022/01/19 13:04:45;;;;;;;13.70;10.18;;;;;;;;;;4997784;28;20568;-79
2022/01/19 13:07:16;;;;;;;14.50;10.57;;;;;;;;;;5017823;28;20238;-79
2022/01/19 13:09:59;;;;;;;13.13;9.60;;;;;;;;;;5023906;28;20287;-80
2022/01/19 13:12:36;;;;;;;16.42;11.20;;;;;;;;;;5017295;28;20279;-78
2022/01/19 13:15:03;;;;;;;11.98;9.70;;;;;;;;;;5031104;28;20598;-77
2022/01/19 13:17:41;;;;;;;14.85;10.68;;;;;;;;;;5011165;28;20192;-78
2022/01/19 13:20:23;;;;;;;14.18;10.88;;;;;;;;;;5020322;28;20192;-77
2022/01/19 13:22:51;;;;;;;12.50;10.45;;;;;;;;;;4977226;28;20193;-79
2022/01/19 13:25:21;;;;;;;14.98;11.48;;;;;;;;;;4973590;28;20219;-78
2022/01/19 13:27:50;;;;;;;16.10;12.85;;;;;;;;;;4970315;28;20309;-77
2022/01/19 13:30:18;;;;;;;13.90;10.68;;;;;;;;;;4970056;28;20193;-78
2022/01/19 13:32:45;;;;;;;17.33;12.25;;;;;;;;;;4969363;28;20296;-79
2022/01/19 13:35:13;;;;;;;14.60;11.95;;;;;;;;;;4968114;28;20276;-79
2022/01/19 13:37:42;;;;;;;16.52;12.55;;;;;;;;;;4971978;28;20198;-79
2022/01/19 13:40:11;;;;;;;15.68;11.15;;;;;;;;;;4957468;28;20204;-79
2022/01/19 13:42:41;;;;;;;21.25;13.15;;;;;;;;;;4957305;28;20193;-77
2022/01/19 13:45:14;;;;;;;17.70;12.35;;;;;;;;;;4972152;28;20244;-78
2022/01/19 13:47:53;;;;;;;18.60;12.93;;;;;;;;;;4975596;28;20229;-78
2022/01/19 13:50:21;;;;;;;16.35;13.45;;;;;;;;;;4968628;28;20667;-81
2022/01/19 13:52:48;;;;;;;17.35;12.07;;;;;;;;;;4970070;28;20357;-78
2022/01/19 13:55:19;;;;;;;15.20;12.00;;;;;;;;;;4993390;28;20242;-77
2022/01/19 13:57:47;;;;;;;16.42;11.15;;;;;;;;;;4993059;28;20200;-78
2022/01/19 14:00:17;;;;;;;15.77;11.68;;;;;;;;;;5012253;28;20200;-81
2022/01/19 14:02:56;;;;;;;16.75;12.43;;;;;;;;;;5015057;28;20191;-78
2022/01/19 14:05:35;;;;;;;18.02;12.93;;;;;;;;;;5013456;28;20306;-77
2022/01/19 14:08:02;;;;;;;20.90;14.55;;;;;;;;;;4990805;28;20220;-77
2022/01/19 14:10:39;;;;;;;18.50;13.23;;;;;;;;;;5011253;28;20204;-76
2022/01/19 14:13:21;;;;;;;18.42;14.00;;;;;;;;;;5011184;28;20680;-77
2022/01/19 14:15:49;;;;;;;21.52;13.48;;;;;;;;;;5010662;28;20212;-77
2022/01/19 14:18:17;;;;;;;16.08;12.10;;;;;;;;;;5013905;28;20215;-78
2022/01/19 14:20:44;;;;;;;18.60;13.25;;;;;;;;;;5017289;28;20202;-79
2022/01/19 14:23:15;;;;;;;19.65;13.70;;;;;;;;;;5012239;28;20387;-79
2022/01/19 14:25:43;;;;;;;22.02;12.65;;;;;;;;;;5011294;28;20226;-78
2022/01/19 14:28:14;;;;;;;21.23;14.15;;;;;;;;;;5011161;28;20692;-79
2022/01/19 14:30:42;;;;;;;18.55;12.60;;;;;;;;;;4990240;28;20281;-76
2022/01/19 14:33:12;;;;;;;19.17;13.10;;;;;;;;;;5011070;28;20589;-79
2022/01/19 14:35:40;;;;;;;19.35;13.60;;;;;;;;;;4996086;28;20576;-80
2022/01/19 14:38:10;;;;;;;20.85;13.88;;;;;;;;;;5009741;28;20559;-78
2022/01/19 14:40:39;;;;;;;22.45;14.38;;;;;;;;;;5015415;28;20253;-78
2022/01/19 14:43:12;;;;;;;19.70;13.45;;;;;;;;;;5015900;28;20199;-77
2022/01/19 14:45:50;;;;;;;19.95;12.88;;;;;;;;;;5010741;28;20227;-77
2022/01/19 14:48:19;;;;;;;18.33;12.57;;;;;;;;;;4994321;28;20303;-78
2022/01/19 14:50:46;;;;;;;16.88;13.73;;;;;;;;;;5007815;28;20200;-77
2022/01/19 14:53:13;;;;;;;21.20;13.52;;;;;;;;;;5010199;28;20203;-77
2022/01/19 14:55:42;;;;;;;16.25;12.00;;;;;;;;;;5011649;28;20215;-79
2022/01/19 14:58:09;;;;;;;17.30;12.27;;;;;;;;;;5010142;28;20207;-79
2022/01/19 15:00:38;;;;;;;14.15;10.57;;;;;;;;;;5011396;28;20199;-79
2022/01/19 15:03:06;;;;;;;19.67;11.77;;;;;;;;;;5014218;28;20199;-77
2022/01/19 15:05:35;;;;;;;17.88;12.32;;;;;;;;;;5017041;28;20211;-78
2022/01/19 15:08:03;;;;;;;16.67;11.25;;;;;;;;;;5008874;28;20216;-77
2022/01/19 15:10:31;;;;;;;14.35;9.80;;;;;;;;;;4993460;28;20200;-77
2022/01/19 15:12:59;;;;;;;14.77;10.45;;;;;;;;;;4990891;28;20198;-75
2022/01/19 15:15:27;;;;;;;14.82;10.10;;;;;;;;;;4993609;28;20231;-79
2022/01/19 15:17:56;;;;;;;15.32;10.63;;;;;;;;;;4993726;28;20200;-76
2022/01/19 15:20:23;;;;;;;16.02;10.10;;;;;;;;;;4994855;28;20588;-78
2022/01/19 15:22:57;;;;;;;14.15;9.93;;;;;;;;;;5013883;28;20682;-77
2022/01/19 15:25:25;;;;;;;14.32;10.35;;;;;;;;;;5009139;28;20226;-77
2022/01/19 15:27:52;;;;;;;16.33;10.57;;;;;;;;;;5010951;28;20224;-77
2022/01/19 15:30:19;;;;;;;14.43;11.05;;;;;;;;;;5010710;28;20196;-77
2022/01/19 15:32:47;;;;;;;14.77;9.70;;;;;;;;;;5010180;28;20700;-78
2022/01/19 15:35:14;;;;;;;14.10;10.43;;;;;;;;;;5011125;28;20249;-78
2022/01/19 15:37:42;;;;;;;15.70;10.70;;;;;;;;;;4994157;28;20199;-76
2022/01/19 15:40:13;;;;;;;13.90;10.15;;;;;;;;;;5013844;28;20250;-77
2022/01/19 15:42:40;;;;;;;17.85;11.13;;;;;;;;;;4994712;28;20207;-77
2022/01/19 15:45:08;;;;;;;17.10;11.15;;;;;;;;;;5013180;28;20323;-77
2022/01/19 15:47:35;;;;;;;17.95;10.90;;;;;;;;;;5011807;28;20227;-78
2022/01/19 15:50:02;;;;;;;15.85;11.95;;;;;;;;;;5011702;28;20780;-78
2022/01/19 15:52:29;;;;;;;16.67;12.27;;;;;;;;;;5013971;28;20208;-77
2022/01/19 15:54:57;;;;;;;17.63;10.98;;;;;;;;;;5018695;28;20225;-78
2022/01/19 15:57:25;;;;;;;22.92;13.18;;;;;;;;;;5021661;28;20226;-77
2022/01/19 15:59:53;;;;;;;16.95;12.60;;;;;;;;;;4990326;28;20201;-78
2022/01/19 16:02:20;;;;;;;15.57;10.80;;;;;;;;;;5009955;28;20200;-78